EGBO weather

Wolverhampton Halfpenny Green Airport
Wolverhampton, England, United Kingdom

Public forecast

Using degrees Celsius for public forecast. Weather courtesy of forecast.io.

METAR (pilot weather report)

Report is more than 6 hours old.

Closest report is DCAE Cosford Air Base, 7.5 nm (14.0 km) NNW. Retrieved 2019/04/18 14:50 UTC (3 days ago):

EGWC 181450Z 08011KT 9999 SCT025 19/10 Q1024 BLU

TAF (pilot weather forecast)

Closest forecast is Birmingham International Airport, 19.1 nm (35.3 km) ESE. Retrieved 2019/04/21 18:00 UTC (4 hours ago):

TAF EGBB 211658Z 2118/2218 VRB04KT CAVOK BECMG 2209/2212 13010KT= TAF EGFF 211658Z 2118/2218 VRB04KT CAVOK PROB30 TEMPO 2203/2207 9000 BECMG 2206/2209 10010KT